Time;durP1;ratioP1;P1;durP2;ratioP2;P2;SDS_P1;SDS_P2;PMS_P1;PMS_P2;Temp;Humidity;BMP_temperature;BMP_pressure;BME280_temperature;BME280_humidity;BME280_pressure;Samples;Min_cycle;Max_cycle;Signal;HPM_P1;HPM_P2
2022/05/19 00:02:11;;;;;;;;;;;;;;;21.58;30.02;98792.13;5014752;28;1050;-75
2022/05/19 00:04:36;;;;;;;;;;;;;;;21.66;29.88;98787.97;5015000;28;908;-75
2022/05/19 00:07:02;;;;;;;;;;;;;;;21.58;30.02;98790.09;5015147;28;1089;-75
2022/05/19 00:09:27;;;;;;;;;;;;;;;21.59;30.01;98793.72;5015176;28;1073;-75
2022/05/19 00:11:53;;;;;;;;;;;;;;;21.51;30.19;98795.06;5014585;28;1910;-75
2022/05/19 00:14:18;;;;;;;;;;;;;;;21.63;30.02;98802.16;4996193;28;2168;-75
2022/05/19 00:16:44;;;;;;;;;;;;;;;21.72;29.45;98799.63;5014990;28;1051;-75
2022/05/19 00:19:10;;;;;;;;;;;;;;;21.76;29.52;98801.19;5014665;28;962;-75
2022/05/19 00:21:35;;;;;;;;;;;;;;;22.10;29.16;98800.25;5014306;28;986;-75
2022/05/19 00:24:01;;;;;;;;;;;;;;;22.31;28.68;98799.91;5015003;28;1024;-75
2022/05/19 00:26:26;;;;;;;;;;;;;;;21.77;29.42;98799.94;4994908;28;988;-75
2022/05/19 00:28:52;;;;;;;;;;;;;;;21.62;29.63;98801.38;4992858;28;2148;-75
2022/05/19 00:31:17;;;;;;;;;;;;;;;21.47;30.01;98794.31;4994666;28;1979;-75
2022/05/19 00:33:43;;;;;;;;;;;;;;;21.76;29.80;98798.34;5024582;28;1054;-75
2022/05/19 00:36:09;;;;;;;;;;;;;;;21.74;29.73;98789.44;5034115;28;982;-75
2022/05/19 00:38:35;;;;;;;;;;;;;;;21.68;29.66;98791.16;5034477;28;1029;-75
2022/05/19 00:41:00;;;;;;;;;;;;;;;21.64;29.84;98796.06;5034195;28;1498;-75
2022/05/19 00:43:27;;;;;;;;;;;;;;;21.66;30.14;98793.63;5032705;28;2094;-75
2022/05/19 00:45:57;;;;;;;;;;;;;;;21.54;30.08;98791.34;5034039;28;1050;-75
2022/05/19 00:48:23;;;;;;;;;;;;;;;21.48;30.27;98793.06;5034173;28;983;-74
2022/05/19 00:50:51;;;;;;;;;;;;;;;21.65;30.26;98792.00;5034161;28;1969;-75
2022/05/19 00:53:39;;;;;;;;;;;;;;;21.78;30.07;98790.22;5033986;28;975;-74
2022/05/19 00:56:30;;;;;;;;;;;;;;;22.12;29.58;98791.34;5032101;28;2073;-75
2022/05/19 00:59:04;;;;;;;;;;;;;;;22.11;29.32;98796.19;4956029;29;1089;-75
2022/05/19 01:01:31;;;;;;;;;;;;;;;21.71;30.09;98796.00;4971825;28;1845;-75
2022/05/19 01:03:58;;;;;;;;;;;;;;;21.83;29.78;98792.56;4955498;29;1348;-75
2022/05/19 01:06:24;;;;;;;;;;;;;;;21.61;30.08;98785.63;4972055;28;955;-75
2022/05/19 01:08:53;;;;;;;;;;;;;;;21.56;30.32;98795.38;4955694;29;1092;-75
2022/05/19 01:11:18;;;;;;;;;;;;;;;21.61;30.05;98796.94;4955454;28;1910;-75
2022/05/19 01:13:44;;;;;;;;;;;;;;;21.53;30.58;98801.09;4955629;28;1004;-74
2022/05/19 01:16:09;;;;;;;;;;;;;;;21.50;30.53;98791.44;4953770;28;2032;-75
2022/05/19 01:18:36;;;;;;;;;;;;;;;21.96;29.92;98789.91;4955546;28;918;-74
2022/05/19 01:21:01;;;;;;;;;;;;;;;22.24;29.61;98800.06;4939855;29;1008;-75
2022/05/19 01:23:31;;;;;;;;;;;;;;;21.98;29.71;98786.69;4955475;28;1051;-75
2022/05/19 01:26:19;;;;;;;;;;;;;;;21.65;29.97;98799.69;4939749;29;1023;-75
2022/05/19 01:28:45;;;;;;;;;;;;;;;21.69;29.98;98792.75;4935650;29;1035;-75
2022/05/19 01:31:28;;;;;;;;;;;;;;;21.74;29.79;98794.31;4912547;29;2068;-75
2022/05/19 01:33:54;;;;;;;;;;;;;;;21.95;30.03;98793.19;4939928;29;2023;-75
2022/05/19 01:36:19;;;;;;;;;;;;;;;22.05;29.74;98798.69;4955609;28;941;-75
2022/05/19 01:38:49;;;;;;;;;;;;;;;22.07;29.37;98793.41;4998322;28;1103;-75
2022/05/19 01:41:21;;;;;;;;;;;;;;;21.74;29.88;98799.97;4983296;28;2008;-75
2022/05/19 01:43:53;;;;;;;;;;;;;;;21.68;29.83;98801.69;5037576;28;954;-75
2022/05/19 01:46:31;;;;;;;;;;;;;;;21.54;30.04;98811.19;5037273;28;921;-74
2022/05/19 01:48:58;;;;;;;;;;;;;;;21.37;30.32;98801.69;5037646;28;954;-75
2022/05/19 01:51:29;;;;;;;;;;;;;;;21.50;30.29;98801.94;5015105;28;2286;-75
2022/05/19 01:54:20;;;;;;;;;;;;;;;21.69;30.26;98804.09;5017523;28;1443;-74
2022/05/19 01:56:54;;;;;;;;;;;;;;;22.05;29.88;98803.56;5016634;28;1065;-75
2022/05/19 01:59:32;;;;;;;;;;;;;;;22.17;29.41;98800.16;5014087;28;2149;-75
2022/05/19 02:02:02;;;;;;;;;;;;;;;21.68;30.13;98799.66;5017534;28;1035;-75
2022/05/19 02:04:30;;;;;;;;;;;;;;;21.55;30.50;98793.78;5017115;28;1045;-75
2022/05/19 02:06:57;;;;;;;;;;;;;;;21.72;29.91;98797.59;5017507;28;1040;-75
2022/05/19 02:09:27;;;;;;;;;;;;;;;21.39;30.37;98789.94;5017036;28;981;-75
2022/05/19 02:11:56;;;;;;;;;;;;;;;21.43;30.53;98791.50;4977250;28;1906;-75
2022/05/19 02:14:24;;;;;;;;;;;;;;;21.40;30.50;98802.88;4977782;28;945;-75
2022/05/19 02:16:49;;;;;;;;;;;;;;;21.88;30.11;98798.97;4978130;28;926;-75
2022/05/19 02:19:16;;;;;;;;;;;;;;;22.13;29.54;98799.44;4977960;28;1009;-75
2022/05/19 02:21:42;;;;;;;;;;;;;;;22.04;29.11;98793.47;4961925;28;925;-75
2022/05/19 02:24:08;;;;;;;;;;;;;;;21.84;29.46;98799.81;4939464;29;1067;-75
2022/05/19 02:26:34;;;;;;;;;;;;;;;21.63;29.97;98802.97;4919439;29;2154;-75
2022/05/19 02:29:01;;;;;;;;;;;;;;;21.48;30.15;98799.53;4919623;29;1869;-74
2022/05/19 02:31:28;;;;;;;;;;;;;;;21.72;30.21;98800.41;4919452;29;2217;-75
2022/05/19 02:33:53;;;;;;;;;;;;;;;22.07;29.13;98807.59;4920374;29;1016;-75
2022/05/19 02:36:18;;;;;;;;;;;;;;;22.27;29.02;98815.38;4888485;29;990;-74
2022/05/19 02:38:44;;;;;;;;;;;;;;;21.86;29.11;98813.56;4920323;29;997;-75
2022/05/19 02:41:09;;;;;;;;;;;;;;;21.57;29.80;98818.84;4904048;29;1176;-75
2022/05/19 02:43:35;;;;;;;;;;;;;;;21.40;29.77;98817.84;4930681;29;998;-75
2022/05/19 02:46:00;;;;;;;;;;;;;;;21.41;29.99;98810.16;4906092;29;2118;-75
2022/05/19 02:48:26;;;;;;;;;;;;;;;21.62;29.80;98815.53;4863254;29;969;-75
2022/05/19 02:50:51;;;;;;;;;;;;;;;21.96;28.98;98812.59;4863490;29;1912;-75
2022/05/19 02:53:17;;;;;;;;;;;;;;;22.12;28.80;98811.16;4863466;29;1040;-75
2022/05/19 02:55:42;;;;;;;;;;;;;;;21.81;29.02;98812.03;4877608;29;954;-75
2022/05/19 02:58:08;;;;;;;;;;;;;;;21.66;29.12;98816.28;4909873;29;974;-75
2022/05/19 03:00:34;;;;;;;;;;;;;;;21.56;29.54;98820.06;4917615;29;2115;-75
2022/05/19 03:02:59;;;;;;;;;;;;;;;21.30;29.99;98815.97;4919557;29;1026;-75
2022/05/19 03:05:26;;;;;;;;;;;;;;;21.85;29.53;98815.59;4919825;29;951;-75
2022/05/19 03:07:52;;;;;;;;;;;;;;;22.19;28.56;98822.41;4921069;29;1387;-75
2022/05/19 03:10:17;;;;;;;;;;;;;;;22.11;28.27;98830.22;4938601;29;1982;-75
2022/05/19 03:12:43;;;;;;;;;;;;;;;21.64;29.12;98829.25;4938458;29;1258;-75
2022/05/19 03:15:08;;;;;;;;;;;;;;;21.50;29.37;98836.72;4936348;29;2142;-75
2022/05/19 03:17:34;;;;;;;;;;;;;;;21.43;29.44;98836.00;4938500;29;1027;-75
2022/05/19 03:19:59;;;;;;;;;;;;;;;21.32;29.44;98836.13;4980935;28;989;-75
2022/05/19 03:22:25;;;;;;;;;;;;;;;21.19;29.76;98833.03;5001356;28;1009;-75
2022/05/19 03:24:51;;;;;;;;;;;;;;;21.44;29.48;98832.75;5057877;28;999;-75
2022/05/19 03:27:16;;;;;;;;;;;;;;;21.82;28.70;98830.63;5057913;28;866;-74
2022/05/19 03:29:42;;;;;;;;;;;;;;;22.12;28.28;98820.47;5055728;28;1898;-75
2022/05/19 03:32:07;;;;;;;;;;;;;;;22.21;28.08;98832.06;5057910;28;993;-75
2022/05/19 03:34:33;;;;;;;;;;;;;;;21.65;28.91;98831.66;5057520;28;934;-75
2022/05/19 03:37:01;;;;;;;;;;;;;;;21.47;29.32;98831.09;5057298;28;909;-75
2022/05/19 03:39:26;;;;;;;;;;;;;;;21.45;29.25;98830.72;5057690;28;1029;-75
2022/05/19 03:41:52;;;;;;;;;;;;;;;21.56;28.94;98839.91;5057252;28;1008;-74
2022/05/19 03:44:20;;;;;;;;;;;;;;;21.41;29.29;98832.81;5055004;28;2180;-74
2022/05/19 03:46:46;;;;;;;;;;;;;;;21.58;28.93;98835.41;5056146;28;2092;-74
2022/05/19 03:49:13;;;;;;;;;;;;;;;21.75;28.63;98844.88;5057398;28;960;-75
2022/05/19 03:51:39;;;;;;;;;;;;;;;22.10;28.04;98839.91;5057394;28;1994;-75
2022/05/19 03:54:04;;;;;;;;;;;;;;;21.85;28.28;98838.25;5039546;28;971;-75
2022/05/19 03:56:30;;;;;;;;;;;;;;;21.58;28.69;98837.44;5055317;28;2202;-75
2022/05/19 03:58:56;;;;;;;;;;;;;;;21.50;28.82;98831.06;5057211;28;954;-74
2022/05/19 04:01:22;;;;;;;;;;;;;;;21.58;28.87;98840.25;5057002;28;996;-75
2022/05/19 04:03:48;;;;;;;;;;;;;;;21.66;29.26;98838.94;5014724;28;978;-75
2022/05/19 04:06:13;;;;;;;;;;;;;;;21.90;28.80;98844.69;5014764;28;977;-75
2022/05/19 04:08:40;;;;;;;;;;;;;;;22.27;28.26;98830.34;5014754;28;1034;-75
2022/05/19 04:11:05;;;;;;;;;;;;;;;21.75;28.68;98829.91;5015274;28;1989;-75
2022/05/19 04:13:30;;;;;;;;;;;;;;;21.57;28.80;98841.50;5015000;28;1073;-75
2022/05/19 04:15:56;;;;;;;;;;;;;;;21.45;29.01;98839.22;4995214;28;997;-75
2022/05/19 04:18:21;;;;;;;;;;;;;;;21.41;28.92;98850.59;4995280;28;1025;-74
2022/05/19 04:20:47;;;;;;;;;;;;;;;21.71;28.97;98837.66;4995323;28;1039;-75
2022/05/19 04:23:12;;;;;;;;;;;;;;;22.14;28.16;98843.53;4995119;28;1036;-75
2022/05/19 04:25:38;;;;;;;;;;;;;;;22.32;27.86;98846.88;4994946;28;996;-74
2022/05/19 04:28:04;;;;;;;;;;;;;;;21.65;28.89;98843.00;4995213;28;1036;-75
2022/05/19 04:30:29;;;;;;;;;;;;;;;21.51;29.29;98846.03;4994744;28;1918;-75
2022/05/19 04:32:56;;;;;;;;;;;;;;;21.37;29.22;98837.72;4994654;28;1072;-75
2022/05/19 04:35:21;;;;;;;;;;;;;;;21.62;29.21;98843.84;5024363;28;1096;-75
2022/05/19 04:37:47;;;;;;;;;;;;;;;21.65;29.30;98848.66;5034338;28;1039;-75
2022/05/19 04:40:12;;;;;;;;;;;;;;;22.03;29.17;98851.38;5034218;28;1000;-75
2022/05/19 04:42:38;;;;;;;;;;;;;;;22.07;29.08;98854.94;5033943;28;1134;-75
2022/05/19 04:45:04;;;;;;;;;;;;;;;21.74;29.04;98851.78;5034194;28;1064;-75
2022/05/19 04:47:31;;;;;;;;;;;;;;;21.44;29.83;98854.59;5034057;28;954;-74
2022/05/19 04:49:57;;;;;;;;;;;;;;;21.54;29.57;98860.13;5034292;28;1905;-74
2022/05/19 04:52:22;;;;;;;;;;;;;;;21.04;30.42;98859.91;5036384;28;1026;-74
2022/05/19 04:54:48;;;;;;;;;;;;;;;21.72;29.92;98859.91;5056405;28;996;-75
2022/05/19 04:57:13;;;;;;;;;;;;;;;22.09;29.08;98853.28;5056567;28;866;-75
2022/05/19 04:59:39;;;;;;;;;;;;;;;22.27;28.60;98855.88;5056357;28;972;-74
2022/05/19 05:02:05;;;;;;;;;;;;;;;21.79;29.48;98854.13;5056181;28;1019;-75
2022/05/19 05:04:30;;;;;;;;;;;;;;;21.67;29.52;98854.72;5056186;28;1021;-75
2022/05/19 05:06:56;;;;;;;;;;;;;;;21.63;29.75;98851.13;5056178;28;1008;-75
2022/05/19 05:09:21;;;;;;;;;;;;;;;21.62;29.82;98849.53;5055984;28;984;-75
2022/05/19 05:11:47;;;;;;;;;;;;;;;21.95;29.69;98861.19;5055663;28;1903;-75
2022/05/19 05:14:13;;;;;;;;;;;;;;;22.17;29.31;98858.88;5004172;28;955;-75
2022/05/19 05:16:39;;;;;;;;;;;;;;;22.33;28.87;98854.19;5056258;28;908;-75
2022/05/19 05:19:05;;;;;;;;;;;;;;;21.78;29.87;98858.19;5056111;28;979;-75
2022/05/19 05:21:30;;;;;;;;;;;;;;;21.66;29.69;98858.78;5055788;28;1014;-75
2022/05/19 05:23:55;;;;;;;;;;;;;;;21.60;29.88;98868.94;5020546;28;1069;-75
2022/05/19 05:26:21;;;;;;;;;;;;;;;21.69;29.43;98872.06;5055552;28;1050;-75
2022/05/19 05:28:46;;;;;;;;;;;;;;;21.60;30.05;98874.59;5038375;28;863;-75
2022/05/19 05:31:12;;;;;;;;;;;;;;;21.45;30.53;98876.00;5055916;28;1969;-75
2022/05/19 05:33:37;;;;;;;;;;;;;;;21.56;30.10;98885.22;5056076;28;1118;-75
2022/05/19 05:36:03;;;;;;;;;;;;;;;21.53;30.04;98892.50;5056357;28;958;-74
2022/05/19 05:38:28;;;;;;;;;;;;;;;21.46;30.18;98886.94;5055742;28;1015;-75
2022/05/19 05:40:54;;;;;;;;;;;;;;;21.43;30.50;98895.47;5055298;28;1245;-75
2022/05/19 05:43:19;;;;;;;;;;;;;;;21.89;29.97;98896.91;5055619;28;902;-75
2022/05/19 05:45:45;;;;;;;;;;;;;;;22.07;29.72;98886.13;5056085;28;958;-75
2022/05/19 05:48:11;;;;;;;;;;;;;;;21.79;30.05;98882.47;5055823;28;852;-75
2022/05/19 05:50:36;;;;;;;;;;;;;;;21.68;30.13;98893.13;5013647;28;1975;-75
2022/05/19 05:53:02;;;;;;;;;;;;;;;21.69;29.95;98893.94;4993914;28;985;-75
2022/05/19 05:55:28;;;;;;;;;;;;;;;21.77;29.68;98901.91;4994082;28;1163;-75
2022/05/19 05:57:53;;;;;;;;;;;;;;;21.63;29.86;98901.28;4993796;28;990;-75
2022/05/19 06:00:19;;;;;;;;;;;;;;;21.61;30.21;98898.91;4993649;28;977;-74
2022/05/19 06:02:44;;;;;;;;;;;;;;;21.50;30.40;98901.03;4994116;28;1000;-75
2022/05/19 06:05:10;;;;;;;;;;;;;;;21.48;30.61;98907.13;4994002;28;985;-75
2022/05/19 06:07:36;;;;;;;;;;;;;;;21.91;29.98;98898.06;4993830;28;1023;-75
2022/05/19 06:10:01;;;;;;;;;;;;;;;22.24;29.59;98907.78;4993785;28;1902;-75
2022/05/19 06:12:27;;;;;;;;;;;;;;;21.99;29.44;98907.28;4993601;28;991;-75
2022/05/19 06:14:56;;;;;;;;;;;;;;;21.76;29.81;98911.66;4993908;28;1021;-74
2022/05/19 06:17:22;;;;;;;;;;;;;;;21.64;29.99;98903.69;4993838;28;1487;-75
2022/05/19 06:19:48;;;;;;;;;;;;;;;21.60;30.17;98908.59;4997251;28;1107;-75
2022/05/19 06:22:13;;;;;;;;;;;;;;;21.45;30.38;98908.00;5027561;28;1016;-75
2022/05/19 06:24:40;;;;;;;;;;;;;;;21.52;30.06;98918.41;5052362;28;962;-75
2022/05/19 06:27:06;;;;;;;;;;;;;;;21.64;30.42;98912.19;5056752;28;1520;-74
2022/05/19 06:29:31;;;;;;;;;;;;;;;22.02;29.62;98912.94;5056626;28;1032;-75
2022/05/19 06:31:57;;;;;;;;;;;;;;;22.18;29.40;98915.16;5016690;28;1918;-75
2022/05/19 06:34:22;;;;;;;;;;;;;;;21.73;29.89;98906.81;5016634;28;978;-75
2022/05/19 06:36:48;;;;;;;;;;;;;;;21.62;30.27;98911.81;5017159;28;939;-75
2022/05/19 06:39:16;;;;;;;;;;;;;;;21.65;30.13;98916.63;5016621;28;1002;-75
2022/05/19 06:44:28;;;;;;;;;;;;;;;21.72;29.76;98922.22;5016824;28;1075;-74
2022/05/19 06:46:53;;;;;;;;;;;;;;;21.68;30.10;98915.78;5016738;28;989;-74
2022/05/19 06:49:19;;;;;;;;;;;;;;;22.01;30.11;98922.63;4983706;28;990;-75
2022/05/19 06:51:44;;;;;;;;;;;;;;;22.13;29.82;98918.47;5016632;28;1910;-75
2022/05/19 06:54:10;;;;;;;;;;;;;;;21.77;30.22;98921.75;4983789;28;1288;-75
2022/05/19 06:56:36;;;;;;;;;;;;;;;21.72;30.08;98913.72;5016513;28;1038;-75
2022/05/19 06:59:02;;;;;;;;;;;;;;;21.70;29.96;98913.31;5016488;28;930;-75
2022/05/19 07:01:28;;;;;;;;;;;;;;;21.66;30.12;98912.59;5016638;28;968;-75
2022/05/19 07:03:53;;;;;;;;;;;;;;;21.48;30.58;98912.78;5053549;28;977;-75
2022/05/19 07:06:18;;;;;;;;;;;;;;;21.55;30.17;98911.91;5058219;28;976;-75
2022/05/19 07:08:44;;;;;;;;;;;;;;;21.66;30.64;98921.09;5058488;28;941;-75
2022/05/19 07:11:24;;;;;;;;;;;;;;;21.93;30.07;98920.34;5058343;28;1914;-75
2022/05/19 07:13:52;;;;;;;;;;;;;;;22.16;29.70;98916.81;5058247;28;931;-75
2022/05/19 07:16:18;;;;;;;;;;;;;;;21.81;30.11;98916.84;5058433;28;948;-75
2022/05/19 07:18:44;;;;;;;;;;;;;;;21.75;30.14;98921.34;5058386;28;1027;-74
2022/05/19 07:21:10;;;;;;;;;;;;;;;21.74;29.83;98916.91;5058058;28;888;-75
2022/05/19 07:23:36;;;;;;;;;;;;;;;21.71;30.06;98920.63;5058193;28;903;-75
2022/05/19 07:26:01;;;;;;;;;;;;;;;21.67;29.99;98925.53;5058359;28;1143;-75
2022/05/19 07:28:28;;;;;;;;;;;;;;;21.66;30.21;98921.09;5057997;28;962;-74
2022/05/19 07:30:53;;;;;;;;;;;;;;;21.67;29.96;98927.56;5014274;28;1914;-75
2022/05/19 07:33:19;;;;;;;;;;;;;;;21.68;30.58;98926.31;5015492;28;977;-75
2022/05/19 07:35:47;;;;;;;;;;;;;;;21.84;30.38;98924.47;5015636;28;1104;-75
2022/05/19 07:38:14;;;;;;;;;;;;;;;22.12;29.83;98922.50;5015792;28;997;-75
2022/05/19 07:40:40;;;;;;;;;;;;;;;21.72;30.23;98922.22;5015295;28;1238;-75
2022/05/19 07:45:50;;;;;;;;;;;;;;;21.77;30.09;98930.25;5015163;28;965;-74
2022/05/19 07:48:16;;;;;;;;;;;;;;;21.86;29.88;98926.88;5015557;28;978;-75
2022/05/19 07:50:41;;;;;;;;;;;;;;;21.74;29.93;98922.59;5015917;28;1999;-75
2022/05/19 07:53:08;;;;;;;;;;;;;;;21.45;30.35;98929.81;5015549;28;1299;-75
2022/05/19 07:55:34;;;;;;;;;;;;;;;21.60;30.14;98936.91;5015610;28;1055;-75
2022/05/19 07:58:00;;;;;;;;;;;;;;;21.57;30.38;98926.44;5015716;28;949;-74
2022/05/19 08:00:25;;;;;;;;;;;;;;;21.78;30.79;98937.50;5015325;28;966;-75
2022/05/19 08:02:50;;;;;;;;;;;;;;;22.15;29.78;98935.84;5034428;28;1018;-75
2022/05/19 08:05:16;;;;;;;;;;;;;;;21.91;30.08;98934.91;5057760;28;986;-75
2022/05/19 08:07:42;;;;;;;;;;;;;;;21.67;30.28;98931.19;5057192;28;979;-75
2022/05/19 08:10:20;;;;;;;;;;;;;;;21.78;29.86;98934.69;5057373;28;1973;-75
2022/05/19 08:15:35;;;;;;;;;;;;;;;21.55;30.51;98940.22;5057113;28;845;-75
2022/05/19 08:18:11;;;;;;;;;;;;;;;21.57;30.38;98937.78;5057532;28;1032;-75
2022/05/19 08:20:39;;;;;;;;;;;;;;;21.69;29.97;98934.38;5057591;28;964;-75
2022/05/19 08:23:05;;;;;;;;;;;;;;;21.74;30.24;98936.75;5039390;28;917;-74
2022/05/19 08:25:31;;;;;;;;;;;;;;;21.60;30.33;98925.59;5057089;28;1022;-74
2022/05/19 08:27:56;;;;;;;;;;;;;;;21.55;30.54;98928.88;5056937;28;881;-74
2022/05/19 08:30:22;;;;;;;;;;;;;;;21.56;30.25;98945.47;5057139;28;1981;-75
2022/05/19 08:32:47;;;;;;;;;;;;;;;21.87;30.66;98939.03;5057312;28;931;-75
2022/05/19 08:35:13;;;;;;;;;;;;;;;22.05;30.28;98950.94;5056667;28;970;-75
2022/05/19 08:37:38;;;;;;;;;;;;;;;22.39;29.80;98952.94;5056657;28;929;-75
2022/05/19 08:40:04;;;;;;;;;;;;;;;22.52;29.24;98945.44;5056565;28;912;-75
2022/05/19 08:42:30;;;;;;;;;;;;;;;22.06;30.17;98944.03;5056629;28;1130;-75
2022/05/19 08:44:55;;;;;;;;;;;;;;;21.89;29.96;98948.72;5038963;28;962;-75
2022/05/19 08:47:24;;;;;;;;;;;;;;;21.73;30.14;98946.47;5039088;28;1017;-74
2022/05/19 08:49:53;;;;;;;;;;;;;;;21.68;30.30;98944.13;5014626;28;983;-75
2022/05/19 08:52:22;;;;;;;;;;;;;;;21.61;30.46;98949.06;5014697;28;1989;-75
2022/05/19 08:54:48;;;;;;;;;;;;;;;21.62;30.21;98934.47;5014610;28;1207;-75
2022/05/19 08:57:16;;;;;;;;;;;;;;;21.67;30.11;98947.38;5014676;28;1112;-75
2022/05/19 08:59:53;;;;;;;;;;;;;;;21.56;30.36;98947.50;4975317;28;903;-75
2022/05/19 09:02:22;;;;;;;;;;;;;;;21.70;30.25;98935.97;4975455;28;1004;-75
2022/05/19 09:05:06;;;;;;;;;;;;;;;21.83;29.91;98934.22;4975475;28;952;-75
2022/05/19 09:10:35;;;;;;;;;;;;;;;21.47;30.26;98933.03;4975396;28;1973;-75
2022/05/19 09:13:18;;;;;;;;;;;;;;;21.65;30.07;98925.13;4975532;28;1026;-75
2022/05/19 09:15:47;;;;;;;;;;;;;;;21.88;29.83;98929.31;4974885;28;1045;-75
2022/05/19 09:18:16;;;;;;;;;;;;;;;21.91;30.38;98936.94;4975393;28;984;-75
2022/05/19 09:20:44;;;;;;;;;;;;;;;22.15;30.27;98938.69;4984084;28;1016;-75
2022/05/19 09:23:10;;;;;;;;;;;;;;;22.14;29.68;98934.25;4994798;28;955;-74
2022/05/19 09:25:36;;;;;;;;;;;;;;;21.88;30.15;98920.81;4994585;28;1090;-75
2022/05/19 09:28:02;;;;;;;;;;;;;;;21.67;30.52;98942.50;4955787;29;1069;-73
2022/05/19 09:30:33;;;;;;;;;;;;;;;21.70;30.43;98935.97;4971221;28;1903;-74
2022/05/19 09:32:59;;;;;;;;;;;;;;;21.63;30.47;98936.09;4994682;28;920;-74
2022/05/19 09:35:24;;;;;;;;;;;;;;;21.66;30.48;98923.09;4994609;28;988;-75
2022/05/19 09:38:01;;;;;;;;;;;;;;;21.64;30.24;98929.19;4994440;28;1039;-74
2022/05/19 09:40:27;;;;;;;;;;;;;;;21.55;30.46;98928.88;5010800;28;991;-75
2022/05/19 09:42:53;;;;;;;;;;;;;;;21.84;30.78;98924.47;4994446;28;1223;-74
2022/05/19 09:45:22;;;;;;;;;;;;;;;22.14;29.88;98933.44;4994426;28;1054;-74
2022/05/19 09:47:51;;;;;;;;;;;;;;;22.12;29.74;98925.34;4994206;28;1002;-75
2022/05/19 09:50:24;;;;;;;;;;;;;;;21.67;30.39;98931.19;4994502;28;1975;-74
2022/05/19 09:52:50;;;;;;;;;;;;;;;21.37;31.24;98928.31;4994908;28;1450;-74
2022/05/19 09:55:16;;;;;;;;;;;;;;;21.44;30.74;98914.84;4998303;28;958;-74
2022/05/19 09:57:42;;;;;;;;;;;;;;;21.58;30.27;98928.06;4998077;28;1049;-74
2022/05/19 10:00:16;;;;;;;;;;;;;;;21.60;30.47;98936.91;5036397;28;1027;-74
2022/05/19 10:02:46;;;;;;;;;;;;;;;21.87;30.10;98927.72;5037481;28;1004;-74
2022/05/19 10:05:22;;;;;;;;;;;;;;;22.30;29.38;98927.94;5037746;28;969;-75
2022/05/19 10:07:49;;;;;;;;;;;;;;;21.92;29.64;98930.06;5037123;28;1076;-74
2022/05/19 10:10:18;;;;;;;;;;;;;;;21.64;29.86;98926.34;5017524;28;1971;-74
2022/05/19 10:12:46;;;;;;;;;;;;;;;21.56;29.88;98924.84;4997765;28;951;-74
2022/05/19 10:15:13;;;;;;;;;;;;;;;21.46;29.93;98931.44;4980637;28;2072;-75
2022/05/19 10:17:50;;;;;;;;;;;;;;;21.61;29.67;98921.56;4997759;28;1065;-75
2022/05/19 10:20:22;;;;;;;;;;;;;;;21.47;29.87;98919.69;4997850;28;940;-74
2022/05/19 10:22:57;;;;;;;;;;;;;;;21.84;29.79;98924.47;4997865;28;1019;-74
2022/05/19 10:25:45;;;;;;;;;;;;;;;22.14;29.20;98931.41;4978313;28;930;-74
2022/05/19 10:31:05;;;;;;;;;;;;;;;21.17;29.82;98852.47;4901529;29;1911;-75
2022/05/19 10:33:40;;;;;;;;;;;;;;;21.41;29.76;98912.88;4901786;29;1097;-74
2022/05/19 10:36:08;;;;;;;;;;;;;;;21.59;29.53;98924.00;4901849;29;941;-74
2022/05/19 10:38:42;;;;;;;;;;;;;;;21.81;29.65;98922.50;4901828;29;1053;-74
2022/05/19 10:41:13;;;;;;;;;;;;;;;21.97;29.24;98921.09;4901394;29;1033;-74
2022/05/19 10:43:38;;;;;;;;;;;;;;;21.94;29.14;98921.94;4901866;29;1024;-75
2022/05/19 10:46:05;;;;;;;;;;;;;;;21.82;29.36;98909.94;4901665;29;1021;-75
2022/05/19 10:48:44;;;;;;;;;;;;;;;21.59;29.72;98918.31;4901375;29;952;-75
2022/05/19 10:51:11;;;;;;;;;;;;;;;21.49;29.64;98903.06;4916786;29;2048;-75
2022/05/19 10:53:45;;;;;;;;;;;;;;;21.37;29.98;98912.13;4901885;29;997;-74
2022/05/19 10:56:11;;;;;;;;;;;;;;;21.44;29.74;98922.53;4917536;29;995;-75
2022/05/19 10:58:54;;;;;;;;;;;;;;;21.51;30.09;98911.16;4939495;29;921;-76
2022/05/19 11:01:55;;;;;;;;;;;;;;;21.86;29.73;98904.22;4939020;29;972;-76
2022/05/19 11:04:53;;;;;;;;;;;;;;;21.92;29.03;98907.41;4945326;28;987;-75
2022/05/19 11:07:35;;;;;;;;;;;;;;;21.55;29.95;98900.56;4901590;29;967;-75
2022/05/19 11:10:17;;;;;;;;;;;;;;;21.44;29.95;98905.56;4901166;29;1895;-76
2022/05/19 11:12:43;;;;;;;;;;;;;;;21.50;29.65;98896.19;4864022;29;981;-76
2022/05/19 11:15:11;;;;;;;;;;;;;;;21.73;29.90;98898.31;4863809;29;999;-75
2022/05/19 11:17:38;;;;;;;;;;;;;;;22.00;29.29;98897.56;4844999;29;1120;-76
2022/05/19 11:20:14;;;;;;;;;;;;;;;21.75;29.10;98893.03;4845186;29;958;-76
2022/05/19 11:22:40;;;;;;;;;;;;;;;21.45;29.80;98901.50;4826628;29;1219;-76
2022/05/19 11:27:59;;;;;;;;;;;;;;;21.45;29.78;98891.00;4827066;29;955;-75
2022/05/19 11:30:25;;;;;;;;;;;;;;;21.43;29.76;98886.97;4790561;30;1903;-75
2022/05/19 11:32:53;;;;;;;;;;;;;;;21.70;29.63;98892.69;4790284;30;1036;-76
2022/05/19 11:35:20;;;;;;;;;;;;;;;21.99;28.86;98882.59;4790188;30;994;-75
2022/05/19 11:37:57;;;;;;;;;;;;;;;21.82;28.79;98878.78;4772622;30;1016;-75
2022/05/19 11:40:25;;;;;;;;;;;;;;;21.54;29.48;98899.75;4757405;30;1071;-76
2022/05/19 11:42:58;;;;;;;;;;;;;;;21.68;29.07;98887.47;4749321;29;1051;-75
2022/05/19 11:45:34;;;;;;;;;;;;;;;21.53;29.42;98883.22;4793277;29;1083;-76
2022/05/19 11:56:18;;;;;;;;;;;;;;;20.30;28.71;98614.25;4881356;29;942;-75
2022/05/19 11:58:43;;;;;;;;;;;;;;;22.25;28.35;98875.34;4881671;29;964;-76
2022/05/19 12:01:09;;;;;;;;;;;;;;;21.70;28.84;98868.00;4851588;29;975;-75
2022/05/19 12:03:38;;;;;;;;;;;;;;;21.50;29.12;98869.88;4862466;29;960;-75
2022/05/19 12:06:14;;;;;;;;;;;;;;;21.47;29.11;98859.41;4862782;29;1004;-75
2022/05/19 12:08:40;;;;;;;;;;;;;;;21.26;29.59;98866.91;4851949;29;1327;-76
2022/05/19 12:11:08;;;;;;;;;;;;;;;21.30;29.52;98853.56;4844137;29;1986;-76
2022/05/19 12:13:34;;;;;;;;;;;;;;;21.43;29.07;98850.16;4844147;29;1057;-75
2022/05/19 12:16:06;;;;;;;;;;;;;;;21.95;28.85;98852.69;4828574;29;966;-76
2022/05/19 12:18:31;;;;;;;;;;;;;;;22.09;28.40;98850.47;4807593;29;1168;-75
2022/05/19 12:20:59;;;;;;;;;;;;;;;21.81;28.54;98856.53;4807813;29;1124;-76
2022/05/19 12:23:25;;;;;;;;;;;;;;;21.60;29.08;98846.28;4808921;29;1101;-76
2022/05/19 12:26:16;;;;;;;;;;;;;;;21.59;28.85;98839.81;4826619;29;1003;-76
2022/05/19 12:28:44;;;;;;;;;;;;;;;21.47;29.06;98845.25;4860333;29;1135;-75
2022/05/19 12:34:23;;;;;;;;;;;;;;;21.39;29.14;98846.56;4807519;29;1011;-75
2022/05/19 12:36:52;;;;;;;;;;;;;;;21.95;28.47;98839.34;4807640;29;1058;-75
2022/05/19 12:39:18;;;;;;;;;;;;;;;22.21;28.08;98832.06;4822713;29;977;-75
2022/05/19 12:41:49;;;;;;;;;;;;;;;21.77;28.60;98842.44;4813947;29;1146;-75
2022/05/19 12:44:34;;;;;;;;;;;;;;;21.72;28.61;98827.94;4825791;29;922;-76
2022/05/19 12:47:10;;;;;;;;;;;;;;;21.56;29.12;98834.22;4873515;29;1009;-75
2022/05/19 12:49:36;;;;;;;;;;;;;;;21.39;29.13;98835.25;4910515;29;972;-75
2022/05/19 12:52:08;;;;;;;;;;;;;;;21.84;28.43;98824.53;4936942;29;1906;-76
2022/05/19 12:54:34;;;;;;;;;;;;;;;22.15;28.23;98830.16;4921372;29;939;-76
2022/05/19 12:57:08;;;;;;;;;;;;;;;21.62;28.73;98832.53;4918027;29;1032;-76
2022/05/19 12:59:52;;;;;;;;;;;;;;;21.54;28.67;98820.47;4918069;29;951;-76
2022/05/19 13:02:20;;;;;;;;;;;;;;;21.35;29.28;98823.16;4917817;29;1070;-75
2022/05/19 13:04:47;;;;;;;;;;;;;;;21.42;28.86;98821.06;4917881;29;1026;-76
2022/05/19 13:07:48;;;;;;;;;;;;;;;21.62;28.74;98815.53;4899084;29;1094;-76
2022/05/19 13:10:15;;;;;;;;;;;;;;;21.95;28.04;98811.00;4903704;29;1899;-75
2022/05/19 13:13:01;;;;;;;;;;;;;;;21.84;28.16;98805.50;4917889;29;899;-75
2022/05/19 13:15:35;;;;;;;;;;;;;;;21.69;28.60;98801.25;4917779;29;913;-76
2022/05/19 13:18:05;;;;;;;;;;;;;;;21.73;28.77;98798.38;4917644;29;1097;-75
2022/05/19 13:20:34;;;;;;;;;;;;;;;21.53;28.67;98803.91;4908473;29;1026;-76
2022/05/19 13:23:00;;;;;;;;;;;;;;;21.54;28.79;98800.66;4898669;29;1016;-76
2022/05/19 13:25:26;;;;;;;;;;;;;;;21.38;29.17;98799.66;4880065;29;986;-75
2022/05/19 13:31:27;;;;;;;;;;;;;;;22.15;28.30;98796.94;4898207;29;1914;-76
2022/05/19 13:33:55;;;;;;;;;;;;;;;21.89;28.14;98792.06;4898695;29;1042;-75
2022/05/19 13:36:46;;;;;;;;;;;;;;;21.75;28.52;98785.38;4898691;29;947;-76
2022/05/19 13:39:13;;;;;;;;;;;;;;;21.55;28.67;98795.78;4877773;29;1019;-75